createdAt,value
2023-03-29T00:49:20.555Z,16.73
2023-03-29T17:50:15.765Z,13.60
2023-03-29T17:52:47.225Z,8.85
2023-03-29T17:55:18.559Z,8.43
2023-03-29T17:57:51.073Z,9.50
2023-03-29T18:00:24.554Z,10.27
2023-03-29T18:02:56.102Z,9.32
2023-03-29T18:05:27.161Z,8.23
2023-03-29T18:07:58.341Z,9.27
2023-03-29T18:10:29.947Z,9.48
2023-03-29T18:13:02.048Z,8.88
2023-03-29T18:15:32.402Z,8.65
2023-03-29T18:18:06.562Z,9.15
2023-03-29T18:20:37.208Z,8.95
2023-03-29T18:23:07.546Z,7.68
2023-03-29T18:25:37.851Z,8.43
2023-03-29T18:28:10.403Z,7.43
2023-03-29T18:30:47.253Z,8.05
2023-03-29T18:33:27.666Z,9.05
2023-03-29T18:36:01.945Z,8.20
2023-03-29T18:38:37.406Z,7.80
2023-03-29T18:41:09.918Z,10.32
2023-03-29T18:43:44.430Z,8.10
2023-03-29T18:46:17.265Z,7.30
2023-03-29T18:48:48.477Z,8.13
2023-03-29T18:51:19.347Z,9.18
2023-03-29T18:53:49.832Z,7.70
2023-03-29T18:56:20.901Z,9.45
2023-03-29T18:58:52.056Z,11.55
2023-03-29T19:01:24.044Z,14.55
2023-03-29T19:03:55.600Z,11.38
2023-03-29T19:06:27.805Z,9.93
2023-03-29T19:09:04.138Z,10.90
2023-03-29T19:11:36.258Z,9.85
2023-03-29T19:14:10.476Z,7.78
2023-03-29T19:16:45.058Z,8.30
2023-03-29T19:19:30.056Z,6.47
2023-03-29T19:22:00.969Z,7.10
2023-03-29T19:24:32.694Z,8.07
2023-03-29T19:27:03.344Z,9.25
2023-03-29T19:29:33.881Z,12.10
2023-03-29T19:32:05.465Z,9.32
2023-03-29T19:34:37.632Z,10.13
2023-03-29T19:37:08.880Z,12.88
2023-03-29T19:39:38.925Z,13.55
2023-03-29T19:42:16.493Z,13.13
2023-03-29T19:44:47.485Z,11.45
2023-03-29T19:47:19.390Z,9.20
2023-03-29T19:49:49.631Z,3.42
2023-03-29T19:52:23.123Z,2.58
2023-03-29T19:54:56.617Z,1.90
2023-03-29T19:57:27.210Z,1.67
2023-03-29T19:59:58.136Z,1.65
2023-03-29T20:02:28.843Z,1.70
2023-03-29T20:05:00.887Z,1.75
2023-03-29T20:07:31.213Z,1.80
2023-03-29T20:10:01.964Z,1.55
2023-03-29T20:12:33.681Z,1.40
2023-03-29T20:15:04.544Z,1.20
2023-03-29T20:17:37.435Z,0.95
2023-03-29T20:20:11.253Z,1.15
2023-03-29T20:22:43.582Z,1.00
2023-03-29T20:25:15.412Z,0.77
2023-03-29T20:27:46.114Z,0.70
2023-03-29T20:30:18.803Z,0.63
2023-03-29T20:32:50.722Z,0.70
2023-03-29T20:35:21.573Z,0.63
2023-03-29T20:37:52.382Z,0.63
2023-03-29T20:40:23.380Z,0.80
2023-03-29T20:42:58.279Z,0.65
2023-03-29T20:45:37.207Z,0.60
2023-03-29T20:48:15.604Z,0.70
2023-03-29T20:50:51.439Z,0.70
2023-03-29T20:53:21.975Z,0.60
2023-03-29T20:55:55.127Z,0.77
2023-03-29T20:58:29.598Z,0.70
2023-03-29T21:01:00.266Z,0.90
2023-03-29T21:03:31.943Z,0.70
2023-03-29T21:06:04.828Z,0.98
2023-03-29T21:08:36.117Z,1.10
2023-03-29T21:11:11.040Z,0.77
2023-03-29T21:13:46.604Z,0.70
2023-03-29T21:16:17.072Z,0.88
2023-03-29T21:18:49.119Z,1.75
2023-03-29T21:21:20.818Z,1.52
2023-03-29T21:23:52.217Z,1.20
2023-03-29T21:26:25.022Z,1.48
2023-03-29T21:28:56.990Z,1.17
2023-03-29T21:31:28.553Z,0.90
2023-03-29T21:34:01.744Z,0.63
2023-03-29T21:36:35.365Z,0.65
2023-03-29T21:39:06.718Z,0.50
2023-03-29T21:41:36.913Z,0.50
2023-03-29T21:44:07.975Z,0.63
2023-03-29T21:46:38.462Z,0.70
2023-03-29T21:49:08.599Z,0.70
2023-03-29T21:51:39.894Z,1.15
2023-03-29T21:54:15.876Z,1.27
2023-03-29T21:56:47.265Z,1.00
2023-03-29T21:59:19.082Z,1.02
2023-03-29T22:01:50.144Z,1.00
2023-03-29T22:04:33.008Z,1.00
2023-03-29T22:07:09.492Z,0.90
2023-03-29T22:09:43.611Z,0.90
2023-03-29T22:12:13.822Z,1.00
2023-03-29T22:14:44.742Z,0.80
2023-03-29T22:17:17.316Z,0.60
2023-03-29T22:19:49.536Z,0.50
2023-03-29T22:22:21.011Z,0.68
2023-03-29T22:24:53.131Z,0.85
2023-03-29T22:27:24.520Z,0.60
2023-03-29T22:29:55.555Z,0.70
2023-03-29T22:32:26.319Z,0.63
2023-03-29T22:34:58.115Z,0.70
2023-03-29T22:37:31.816Z,0.75
2023-03-29T22:40:02.905Z,0.95
2023-03-29T22:42:34.266Z,0.60
2023-03-29T22:45:05.351Z,0.68
2023-03-29T22:47:37.859Z,0.80
2023-03-29T22:50:09.606Z,1.00
2023-03-29T22:52:40.732Z,0.90
2023-03-29T22:55:12.348Z,0.80
2023-03-29T22:57:46.013Z,0.90
2023-03-29T23:00:17.215Z,0.93
2023-03-29T23:02:49.032Z,0.65
2023-03-29T23:05:20.164Z,0.70
